Terminal Aerodrome Forecast
Issued by NWS Green Bay, WI

Home | Current Version | Previous Version | Text Only | Print | Product List | Glossary On
Versions: 1 2 3 4 5 6 7 8 9 10 11 12 13 14 15 16 17 18 19 20 21 22 23 24 25 26 27 28 29 30 31 32 33 34 35
957
FTUS43 KGRB 200933 AAD
TAFGRB
TAF AMD
KGRB 200933Z 2010/2106 02007KT 1SM BR OVC002
      TEMPO 2011/2012 -FZDZ
     FM201200 11003KT 1SM -FZRAPL BR OVC003 WS020/23030KT
     FM201600 24005KT 5SM -DZ BR OVC005
     FM202100 27007KT P6SM OVC007=

USA.gov is the U.S. government's official web portal to all federal, state and local government web resources and services.